createdAt,value
2023-03-01T00:02:08.223Z,102277.34
2023-03-01T00:04:53.586Z,102271.50
2023-03-01T00:07:39.051Z,102275.25
2023-03-01T00:10:23.972Z,102283.59
2023-03-01T00:13:09.404Z,102302.88
2023-03-01T00:15:54.390Z,102303.59
2023-03-01T00:18:40.017Z,102302.44
2023-03-01T00:21:25.997Z,102308.44
2023-03-01T00:24:11.442Z,102309.66
2023-03-01T00:26:57.221Z,102304.03
2023-03-01T00:29:42.144Z,102307.59
2023-03-01T00:32:27.510Z,102311.78
2023-03-01T00:35:12.698Z,102307.41
2023-03-01T00:37:58.459Z,102302.03
2023-03-01T00:40:43.689Z,102302.84
2023-03-01T00:43:29.252Z,102306.75
2023-03-01T00:46:17.310Z,102313.00
2023-03-01T00:49:02.526Z,102293.84
2023-03-01T00:51:47.686Z,102301.78
2023-03-01T00:54:32.631Z,102300.22
2023-03-01T00:57:17.779Z,102305.94
2023-03-01T01:00:04.864Z,102308.06
2023-03-01T01:02:50.269Z,102314.56
2023-03-01T01:05:36.240Z,102305.47
2023-03-01T01:08:21.798Z,102292.22
2023-03-01T01:11:06.697Z,102289.59
2023-03-01T01:13:52.525Z,102295.31
2023-03-01T01:16:37.444Z,102297.41
2023-03-01T01:19:22.811Z,102298.03
2023-03-01T01:22:08.292Z,102289.66
2023-03-01T01:24:53.183Z,102286.34
2023-03-01T01:27:38.718Z,102291.19
2023-03-01T01:30:24.068Z,102286.78
2023-03-01T01:33:45.340Z,102277.53
2023-03-01T01:36:31.303Z,102272.13
2023-03-01T01:39:16.598Z,102266.78
2023-03-01T01:42:02.340Z,102262.81
2023-03-01T01:45:26.499Z,102272.38
2023-03-01T01:48:17.950Z,102265.81
2023-03-01T01:51:03.492Z,102260.56
2023-03-01T01:53:53.989Z,102252.09
2023-03-01T01:56:41.946Z,102252.41
2023-03-01T01:59:33.443Z,102247.31
2023-03-01T02:02:31.761Z,102251.94
2023-03-01T02:05:27.087Z,102242.25
2023-03-01T02:08:14.139Z,102248.47
2023-03-01T02:10:59.959Z,102249.09
2023-03-01T02:13:45.717Z,102246.47
2023-03-01T02:16:31.473Z,102253.34
2023-03-01T02:19:42.226Z,102250.31
2023-03-01T02:22:31.380Z,102248.06
2023-03-01T02:25:28.695Z,102242.72
2023-03-01T02:28:16.795Z,102249.03
2023-03-01T02:31:04.040Z,102240.66
2023-03-01T02:33:49.531Z,102250.53
2023-03-01T02:36:41.469Z,102259.59
2023-03-01T02:39:31.345Z,102253.03
2023-03-01T02:42:22.305Z,102248.16
2023-03-01T02:45:07.466Z,102247.22
2023-03-01T02:48:01.899Z,102237.53
2023-03-01T02:50:58.431Z,102244.66
2023-03-01T02:53:57.642Z,102238.84
2023-03-01T02:56:43.922Z,102232.69
2023-03-01T02:59:33.827Z,102228.00
2023-03-01T03:02:28.107Z,102230.09
2023-03-01T03:05:15.249Z,102224.09
2023-03-01T03:08:02.701Z,102220.72
2023-03-01T03:10:47.999Z,102233.91
2023-03-01T03:13:32.916Z,102228.16
2023-03-01T03:16:18.722Z,102209.69
2023-03-01T03:19:03.470Z,102207.59
2023-03-01T03:21:48.432Z,102209.22
2023-03-01T03:24:33.262Z,102204.28
2023-03-01T03:27:18.229Z,102208.19
2023-03-01T03:30:03.299Z,102201.88
2023-03-01T03:32:49.078Z,102202.19
2023-03-01T03:35:44.671Z,102208.44
2023-03-01T03:38:29.820Z,102200.13
2023-03-01T03:41:16.631Z,102196.78
2023-03-01T03:44:01.711Z,102206.44
2023-03-01T03:46:47.021Z,102196.81
2023-03-01T03:49:32.262Z,102200.88
2023-03-01T03:52:17.409Z,102194.59
2023-03-01T03:55:02.457Z,102188.09
2023-03-01T03:57:49.010Z,102191.66
2023-03-01T04:00:36.692Z,102193.47
2023-03-01T04:03:21.700Z,102180.72
2023-03-01T04:06:06.787Z,102190.31
2023-03-01T04:08:52.137Z,102186.00
2023-03-01T04:11:37.328Z,102193.00
2023-03-01T04:14:22.244Z,102198.03
2023-03-01T04:17:07.194Z,102199.81
2023-03-01T04:19:52.190Z,102193.69
2023-03-01T04:22:37.134Z,102195.53
2023-03-01T04:25:22.124Z,102197.25
2023-03-01T04:28:09.081Z,102194.16
2023-03-01T04:30:56.737Z,102201.94
2023-03-01T04:33:48.781Z,102197.88
2023-03-01T04:36:34.495Z,102198.97
2023-03-01T04:39:19.923Z,102197.03
2023-03-01T04:42:04.823Z,102205.97
2023-03-01T04:44:50.140Z,102204.75
2023-03-01T04:47:35.594Z,102211.75
2023-03-01T04:50:21.069Z,102208.63
2023-03-01T04:53:06.542Z,102205.38
2023-03-01T04:55:51.801Z,102208.31
2023-03-01T04:58:37.659Z,102204.00
2023-03-01T05:01:22.837Z,102200.31
2023-03-01T05:04:08.033Z,102196.75
2023-03-01T05:06:53.385Z,102199.84
2023-03-01T05:09:38.713Z,102191.97
2023-03-01T05:12:23.570Z,102187.97
2023-03-01T05:15:09.294Z,102196.06
2023-03-01T05:17:56.970Z,102190.59
2023-03-01T05:20:41.961Z,102190.91
2023-03-01T05:23:26.857Z,102198.66
2023-03-01T05:26:27.357Z,102200.00
2023-03-01T05:29:13.825Z,102204.44
2023-03-01T05:32:01.440Z,102195.84
2023-03-01T05:34:46.572Z,102192.72
2023-03-01T05:37:32.004Z,102188.25
2023-03-01T05:40:20.029Z,102186.75
2023-03-01T05:43:05.712Z,102186.47
2023-03-01T05:45:50.950Z,102191.81
2023-03-01T05:48:36.444Z,102190.47
2023-03-01T05:51:21.355Z,102191.81
2023-03-01T05:54:06.279Z,102188.13
2023-03-01T05:56:51.755Z,102195.28
2023-03-01T05:59:36.630Z,102199.13
2023-03-01T06:02:22.126Z,102192.59
2023-03-01T06:05:09.414Z,102199.75
2023-03-01T06:07:54.940Z,102206.44
2023-03-01T06:10:40.379Z,102208.09
2023-03-01T06:13:25.895Z,102212.09
2023-03-01T06:16:11.826Z,102213.59
2023-03-01T06:18:57.074Z,102221.31
2023-03-01T06:21:41.950Z,102215.69
2023-03-01T06:24:26.984Z,102223.09
2023-03-01T06:27:11.845Z,102218.03
2023-03-01T06:29:57.321Z,102221.63
2023-03-01T06:32:42.504Z,102225.94
2023-03-01T06:35:27.982Z,102221.31
2023-03-01T06:38:13.676Z,102224.00
2023-03-01T06:40:58.942Z,102232.59
2023-03-01T06:43:44.279Z,102219.03
2023-03-01T06:46:29.578Z,102216.44
2023-03-01T06:49:15.204Z,102210.41
2023-03-01T06:52:00.258Z,102200.06
2023-03-01T06:54:45.677Z,102185.63
2023-03-01T06:57:30.644Z,102171.75
2023-03-01T07:00:16.708Z,102177.53
2023-03-01T07:03:02.610Z,102159.31
2023-03-01T07:05:50.241Z,102149.66
2023-03-01T07:08:35.298Z,102141.47
2023-03-01T07:11:20.967Z,102130.22
2023-03-01T07:14:06.267Z,102139.72
2023-03-01T07:16:51.751Z,102132.31
2023-03-01T07:19:36.599Z,102129.25
2023-03-01T07:22:21.748Z,102122.09
2023-03-01T07:25:07.022Z,102105.38
2023-03-01T07:27:53.073Z,102089.34
2023-03-01T07:30:38.326Z,102080.72
2023-03-01T07:33:23.558Z,102078.66
2023-03-01T07:36:10.302Z,102064.16
2023-03-01T07:38:56.045Z,102066.59
2023-03-01T07:41:41.239Z,102067.50
2023-03-01T07:44:26.383Z,102062.63
2023-03-01T07:47:11.652Z,102048.03
2023-03-01T07:49:56.532Z,102056.81
2023-03-01T07:52:42.263Z,102057.31
2023-03-01T07:55:27.549Z,102065.69
2023-03-01T07:58:14.309Z,102058.56
2023-03-01T08:01:05.765Z,102057.03
2023-03-01T08:03:50.902Z,102056.41
2023-03-01T08:06:36.653Z,102059.09
2023-03-01T08:09:22.489Z,102063.25
2023-03-01T08:12:07.861Z,102072.16
2023-03-01T08:14:53.234Z,102070.84
2023-03-01T08:17:38.624Z,102059.22
2023-03-01T08:20:23.476Z,102058.50
2023-03-01T08:23:08.740Z,102039.59
2023-03-01T08:25:54.050Z,102028.56
2023-03-01T08:28:40.204Z,102025.81
2023-03-01T08:31:32.237Z,101991.31
2023-03-01T08:34:18.872Z,101983.59
2023-03-01T08:37:04.066Z,101974.09
2023-03-01T08:39:49.293Z,101953.75
2023-03-01T08:42:34.857Z,101938.63
2023-03-01T08:45:20.198Z,101932.81
2023-03-01T08:48:05.675Z,101891.78
2023-03-01T08:50:50.711Z,101876.19
2023-03-01T08:53:36.029Z,101869.50
2023-03-01T08:56:21.048Z,101845.88
2023-03-01T08:59:06.616Z,101829.94
2023-03-01T09:01:52.067Z,101811.97
2023-03-01T09:04:37.400Z,101811.75
2023-03-01T09:07:22.712Z,101808.94
2023-03-01T09:10:08.964Z,101806.28
2023-03-01T09:12:54.184Z,101795.44
2023-03-01T09:15:40.030Z,101784.75
2023-03-01T09:18:25.423Z,101772.09
2023-03-01T09:21:16.295Z,101763.78
2023-03-01T09:24:01.259Z,101766.59
2023-03-01T09:26:46.400Z,101729.56
2023-03-01T09:29:31.887Z,101704.03
2023-03-01T09:32:17.251Z,101698.19
2023-03-01T09:35:02.705Z,101725.09
2023-03-01T09:37:47.813Z,101703.78
2023-03-01T09:40:36.309Z,101679.09
2023-03-01T09:46:28.194Z,101702.09
2023-03-01T09:49:19.378Z,101688.94
2023-03-01T09:52:20.690Z,101658.72
2023-03-01T09:55:13.096Z,101659.53
2023-03-01T09:58:26.332Z,101646.41
2023-03-01T10:01:22.376Z,101659.91
2023-03-01T10:04:36.536Z,101689.94
2023-03-01T10:07:57.666Z,101666.59
2023-03-01T10:10:49.134Z,101651.22
2023-03-01T10:13:58.457Z,101637.97
2023-03-01T10:16:51.816Z,101631.59
2023-03-01T10:19:45.769Z,101635.13
2023-03-01T10:22:31.942Z,101656.41
2023-03-01T10:25:33.344Z,101658.03
2023-03-01T10:28:25.317Z,101602.56
2023-03-01T10:31:19.113Z,101615.88
2023-03-01T10:34:12.534Z,101623.22
2023-03-01T10:37:02.314Z,101574.78
2023-03-01T10:39:59.749Z,101597.94
2023-03-01T10:42:49.772Z,101592.06
2023-03-01T10:45:38.339Z,101571.66
2023-03-01T10:48:26.217Z,101556.97
2023-03-01T10:51:19.348Z,101566.38
2023-03-01T10:54:06.973Z,101530.31
2023-03-01T10:57:00.919Z,101544.63
2023-03-01T11:02:50.125Z,101590.97
2023-03-01T11:05:34.924Z,101581.84
2023-03-01T11:08:38.207Z,101578.66
2023-03-01T11:11:35.347Z,101569.25
2023-03-01T11:14:27.766Z,101569.56
2023-03-01T11:17:18.080Z,101590.63
2023-03-01T11:20:07.666Z,101610.38
2023-03-01T11:23:13.181Z,101581.06
2023-03-01T11:26:03.772Z,101587.41
2023-03-01T11:28:54.048Z,101531.94
2023-03-01T11:34:49.991Z,101567.09
2023-03-01T11:37:41.045Z,101579.28
2023-03-01T11:40:33.670Z,101559.91
2023-03-01T11:43:45.353Z,101506.03
2023-03-01T11:46:33.587Z,101482.03
2023-03-01T11:49:33.995Z,101481.94
2023-03-01T11:52:27.941Z,101510.41
2023-03-01T11:55:26.155Z,101444.28
2023-03-01T11:58:39.925Z,101433.38
2023-03-01T12:02:06.066Z,101394.66
2023-03-01T12:05:00.483Z,101386.16
2023-03-01T12:08:04.566Z,101422.06
2023-03-01T12:11:07.502Z,101355.81
2023-03-01T12:14:00.676Z,101360.31
2023-03-01T12:17:21.415Z,101384.53
2023-03-01T12:20:10.378Z,101392.75
2023-03-01T12:23:25.550Z,101406.97
2023-03-01T12:26:29.573Z,101413.75
2023-03-01T12:29:35.664Z,101402.06
2023-03-01T12:32:48.441Z,101347.69
2023-03-01T12:35:48.698Z,101335.34
2023-03-01T12:38:46.799Z,101358.88
2023-03-01T12:42:11.228Z,101324.88
2023-03-01T12:45:34.204Z,101320.16
2023-03-01T12:49:07.771Z,101307.22
2023-03-01T12:52:02.586Z,101343.81
2023-03-01T12:54:50.232Z,101277.34
2023-03-01T12:57:45.060Z,101296.09
2023-03-01T13:00:52.816Z,101269.28
2023-03-01T13:04:05.664Z,101279.53
2023-03-01T13:07:09.480Z,101282.31
2023-03-01T13:10:35.755Z,101219.59
2023-03-01T13:13:26.128Z,101209.28
2023-03-01T13:16:42.488Z,101228.88
2023-03-01T13:19:29.900Z,101206.81
2023-03-01T13:22:30.837Z,101194.53
2023-03-01T13:25:21.157Z,101161.63
2023-03-01T13:28:48.007Z,101192.53
2023-03-01T13:31:32.883Z,101163.25
2023-03-01T13:34:49.025Z,101158.50
2023-03-01T13:37:36.588Z,101170.94
2023-03-01T13:40:30.291Z,101159.13
2023-03-01T13:43:29.897Z,101141.63
2023-03-01T13:46:22.425Z,101171.28
2023-03-01T13:49:15.459Z,101194.78
2023-03-01T13:52:00.893Z,101128.06
2023-03-01T13:54:46.093Z,101069.13
2023-03-01T13:57:37.753Z,101118.66
2023-03-01T14:00:27.206Z,101065.44
2023-03-01T14:03:17.583Z,101095.72
2023-03-01T14:06:14.727Z,101074.63
2023-03-01T14:09:15.828Z,101019.09
2023-03-01T14:12:19.793Z,100979.19
2023-03-01T14:15:14.833Z,101043.81
2023-03-01T14:18:42.454Z,100996.16
2023-03-01T14:21:27.475Z,101067.16
2023-03-01T14:24:18.898Z,101015.66
2023-03-01T14:27:03.819Z,101014.88
2023-03-01T14:30:14.911Z,101009.69
2023-03-01T14:33:05.852Z,101010.09
2023-03-01T14:36:07.639Z,100974.50
2023-03-01T14:38:52.835Z,100912.66
2023-03-01T14:41:37.708Z,100901.06
2023-03-01T14:44:24.715Z,100956.94
2023-03-01T14:47:16.637Z,100933.19
2023-03-01T14:50:10.218Z,100936.47
2023-03-01T14:53:00.655Z,100960.88
2023-03-01T14:55:49.510Z,100969.13
2023-03-01T14:58:34.633Z,100936.75
2023-03-01T15:01:19.860Z,100936.22
2023-03-01T15:04:06.532Z,100975.50
2023-03-01T15:06:53.581Z,101008.66
2023-03-01T15:09:42.618Z,101028.50
2023-03-01T15:12:30.463Z,101070.44
2023-03-01T15:15:35.339Z,100985.69
2023-03-01T15:18:28.624Z,101016.66
2023-03-01T15:21:23.548Z,101043.59
2023-03-01T15:24:11.369Z,101016.72
2023-03-01T15:26:58.980Z,101019.88
2023-03-01T15:29:50.173Z,101018.03
2023-03-01T15:32:37.184Z,101077.63
2023-03-01T15:35:42.381Z,101077.75
2023-03-01T15:38:52.611Z,101087.19
2023-03-01T15:41:48.577Z,101078.53
2023-03-01T15:44:43.469Z,101104.66
2023-03-01T15:47:31.437Z,101082.72
2023-03-01T15:50:45.099Z,101089.28
2023-03-01T15:53:29.919Z,101055.03
2023-03-01T15:56:15.245Z,101044.75
2023-03-01T15:59:02.155Z,101064.22
2023-03-01T16:01:47.289Z,101060.75
2023-03-01T16:04:32.189Z,101048.06
2023-03-01T16:07:17.975Z,101081.97
2023-03-01T16:10:02.830Z,101096.66
2023-03-01T16:12:48.870Z,101137.38
2023-03-01T16:15:34.664Z,101084.78
2023-03-01T16:18:19.678Z,101129.38
2023-03-01T16:21:05.471Z,101091.88
2023-03-01T16:23:51.896Z,101111.13
2023-03-01T16:26:37.675Z,101138.66
2023-03-01T16:29:23.121Z,101078.31
2023-03-01T16:32:08.131Z,101104.34
2023-03-01T16:34:53.797Z,101106.19
2023-03-01T16:37:39.662Z,101133.22
2023-03-01T16:40:29.429Z,101171.13
2023-03-01T16:43:14.360Z,101170.34
2023-03-01T16:45:59.262Z,101179.31
2023-03-01T16:48:44.509Z,101189.78
2023-03-01T16:51:29.927Z,101193.41
2023-03-01T16:54:14.825Z,101209.94
2023-03-01T16:56:59.666Z,101204.66
2023-03-01T16:59:47.605Z,101225.06
2023-03-01T17:03:30.578Z,101224.13
2023-03-01T17:06:20.192Z,101254.69
2023-03-01T17:09:05.488Z,101267.16
2023-03-01T17:11:50.623Z,101268.19
2023-03-01T17:14:35.946Z,101282.47
2023-03-01T17:17:22.025Z,101291.34
2023-03-01T17:20:08.073Z,101318.78
2023-03-01T17:22:53.486Z,101306.28
2023-03-01T17:25:45.299Z,101334.78
2023-03-01T17:28:32.309Z,101332.13
2023-03-01T17:31:17.219Z,101337.84
2023-03-01T17:34:02.189Z,101338.63
2023-03-01T17:36:47.543Z,101364.41
2023-03-01T17:39:32.699Z,101345.44
2023-03-01T17:42:17.771Z,101349.94
2023-03-01T17:45:03.329Z,101369.09
2023-03-01T17:47:48.635Z,101378.94
2023-03-01T17:50:39.657Z,101394.41
2023-03-01T17:53:24.408Z,101408.09
2023-03-01T17:56:09.505Z,101406.53
2023-03-01T17:58:54.655Z,101426.75
2023-03-01T18:01:41.927Z,101434.31
2023-03-01T18:04:28.101Z,101435.22
2023-03-01T18:07:13.143Z,101443.97
2023-03-01T18:09:58.039Z,101448.28
2023-03-01T18:12:42.957Z,101449.31
2023-03-01T18:15:28.401Z,101460.22
2023-03-01T18:18:14.024Z,101465.19
2023-03-01T18:21:00.434Z,101482.41
2023-03-01T18:23:45.685Z,101494.31
2023-03-01T18:26:30.895Z,101487.72
2023-03-01T18:29:15.867Z,101494.34
2023-03-01T18:32:00.834Z,101504.22
2023-03-01T18:34:51.253Z,101513.41
2023-03-01T18:37:46.798Z,101504.84
2023-03-01T18:40:40.953Z,101510.38
2023-03-01T18:43:26.104Z,101505.81
2023-03-01T18:46:17.121Z,101499.91
2023-03-01T18:49:02.375Z,101501.03
2023-03-01T18:51:47.610Z,101485.69
2023-03-01T18:54:32.946Z,101493.34
2023-03-01T18:57:18.199Z,101488.66
2023-03-01T19:00:04.347Z,101498.25
2023-03-01T19:02:49.269Z,101492.19
2023-03-01T19:05:34.194Z,101487.31
2023-03-01T19:08:19.049Z,101481.44
2023-03-01T19:11:06.073Z,101477.56
2023-03-01T19:13:51.533Z,101483.34
2023-03-01T19:16:36.757Z,101488.47
2023-03-01T19:19:21.762Z,101500.63
2023-03-01T19:22:06.712Z,101514.09
2023-03-01T19:24:52.117Z,101511.69
2023-03-01T19:27:37.615Z,101507.22
2023-03-01T19:30:22.552Z,101533.66
2023-03-01T19:33:07.447Z,101524.69
2023-03-01T19:35:52.841Z,101523.72
2023-03-01T19:38:40.632Z,101530.63
2023-03-01T19:41:25.465Z,101531.41
2023-03-01T19:44:10.827Z,101532.59
2023-03-01T19:46:57.540Z,101538.06
2023-03-01T19:49:42.399Z,101542.13
2023-03-01T19:52:27.351Z,101550.84
2023-03-01T19:55:12.133Z,101550.84
2023-03-01T19:57:56.894Z,101550.25
2023-03-01T20:00:46.170Z,101540.84
2023-03-01T20:03:35.290Z,101546.44
2023-03-01T20:06:21.376Z,101559.31
2023-03-01T20:09:19.264Z,101556.97
2023-03-01T20:12:06.091Z,101563.69
2023-03-01T20:14:51.311Z,101568.31
2023-03-01T20:17:36.689Z,101565.25
2023-03-01T20:20:22.168Z,101571.94
2023-03-01T20:23:07.246Z,101580.78
2023-03-01T20:25:52.201Z,101586.06
2023-03-01T20:28:43.924Z,101575.28
2023-03-01T20:31:29.212Z,101573.41
2023-03-01T20:34:14.633Z,101579.41
2023-03-01T20:36:59.899Z,101586.38
2023-03-01T20:39:45.558Z,101586.75
2023-03-01T20:42:30.568Z,101587.06
2023-03-01T20:45:15.510Z,101595.41
2023-03-01T20:48:00.671Z,101606.09
2023-03-01T20:50:45.490Z,101613.75
2023-03-01T20:53:30.409Z,101617.13
2023-03-01T20:56:20.512Z,101613.16
2023-03-01T20:59:07.523Z,101625.25
2023-03-01T21:01:52.626Z,101639.22
2023-03-01T21:04:37.650Z,101631.69
2023-03-01T21:07:23.161Z,101643.81
2023-03-01T21:10:09.756Z,101650.81
2023-03-01T21:12:54.866Z,101662.44
2023-03-01T21:15:40.226Z,101666.44
2023-03-01T21:18:25.969Z,101667.47
2023-03-01T21:21:22.798Z,101663.09
2023-03-01T21:24:07.900Z,101675.56
2023-03-01T21:26:53.076Z,101681.84
2023-03-01T21:29:40.339Z,101674.97
2023-03-01T21:32:25.653Z,101673.38
2023-03-01T21:35:10.988Z,101663.44
2023-03-01T21:37:56.388Z,101664.09
2023-03-01T21:40:41.610Z,101668.59
2023-03-01T21:43:26.493Z,101671.00
2023-03-01T21:46:16.974Z,101665.81
2023-03-01T21:49:02.737Z,101666.69
2023-03-01T21:51:48.819Z,101661.28
2023-03-01T21:54:34.276Z,101661.44
2023-03-01T21:57:20.426Z,101660.00
2023-03-01T22:00:05.820Z,101663.53
2023-03-01T22:02:51.224Z,101662.44
2023-03-01T22:05:36.596Z,101662.88
2023-03-01T22:08:21.628Z,101654.25
2023-03-01T22:11:06.805Z,101651.03
2023-03-01T22:13:52.233Z,101651.38
2023-03-01T22:16:39.300Z,101657.91
2023-03-01T22:19:24.538Z,101654.56
2023-03-01T22:22:09.734Z,101643.44
2023-03-01T22:24:54.611Z,101640.03
2023-03-01T22:27:39.920Z,101651.09
2023-03-01T22:30:25.394Z,101662.16
2023-03-01T22:33:10.579Z,101665.03
2023-03-01T22:35:56.193Z,101661.47
2023-03-01T22:38:41.331Z,101662.25
2023-03-01T22:41:28.903Z,101660.81
2023-03-01T22:44:17.214Z,101652.53
2023-03-01T22:47:02.542Z,101664.03
2023-03-01T22:49:47.385Z,101660.72
2023-03-01T22:52:32.694Z,101666.34
2023-03-01T22:55:18.538Z,101669.25
2023-03-01T22:58:03.617Z,101663.59
2023-03-01T23:00:48.652Z,101657.69
2023-03-01T23:03:33.765Z,101653.03
2023-03-01T23:06:20.569Z,101655.59
2023-03-01T23:09:05.652Z,101655.22
2023-03-01T23:11:51.200Z,101660.78
2023-03-01T23:14:52.437Z,101662.78
2023-03-01T23:17:37.830Z,101661.09
2023-03-01T23:20:22.845Z,101670.38
2023-03-01T23:23:08.179Z,101674.97
2023-03-01T23:25:57.511Z,101666.97
2023-03-01T23:28:42.691Z,101662.69
2023-03-01T23:31:28.010Z,101653.25
2023-03-01T23:34:13.607Z,101644.34
2023-03-01T23:36:58.886Z,101650.16
2023-03-01T23:39:43.685Z,101646.69
2023-03-01T23:45:58.059Z,101667.16
2023-03-01T23:48:44.684Z,101668.66
2023-03-01T23:51:46.431Z,101671.41
2023-03-01T23:54:32.198Z,101665.72
2023-03-01T23:57:35.159Z,101663.75
